Tropical I — CRLU8 — position and weather

sailwx.info

Track history (hours):
 
Tides and Currents Weather Stations Pressure Air Temp Water Temp Dewpoint Dewpoint Depression Visibility Wind Speed Wind Dir Waves Ship Positions

Tropical I

Last reported at 2015-Aug-30 10:14 UTC. Time now 2015-Sep-04 23:11 UTC.
Position N 38°42' W 009°12'.

Length 11 m.

Type: Pleasure craft. MMSI: 263818940.

Date/timePositionNaut miles runAvg speedWind from/ knotsBaromVisibWave heightAir tempDewpointWater temp
2015-Aug-30 10:14N 38°42' W 009°12'3 4.5
2015-Aug-30 09:33N 38°41' W 009°16'4 3.7
2015-Aug-30 08:33N 38°39' W 009°20'3 3.5
2015-Aug-30 07:34N 38°37' W 009°23'5 5.0
2015-Aug-30 06:33N 38°32' W 009°23'5 5.2
2015-Aug-30 05:33N 38°26' W 009°22'23 5.2
2015-Aug-30 01:12N 38°04' W 009°19'3 5.3
2015-Aug-30 00:33N 38°00' W 009°18'5 5.0
2015-Aug-29 23:33N 37°55' W 009°17'5 4.5
2015-Aug-29 22:33N 37°51' W 009°16'4 4.3
2015-Aug-29 21:33N 37°47' W 009°13'4 3.9
2015-Aug-29 20:33N 37°44' W 009°13'3 3.3
2015-Aug-29 19:32N 37°40' W 009°12'4 3.6
2015-Aug-29 18:33N 37°37' W 009°12'39 3.8
2015-Aug-29 08:10N 37°03' W 008°46'4 5.4
2015-Aug-29 07:30N 37°04' W 008°42'9 0.7
2015-Aug-28 18:34N 37°06' W 008°32'5 5.1
2015-Aug-28 17:33N 37°05' W 008°25'6 5.4
2015-Aug-28 16:31N 37°03' W 008°19'6 5.6
2015-Aug-28 15:30N 37°01' W 008°12'  
Track history (hours):
 
Tides and Currents Weather Stations Pressure Air Temp Water Temp Dewpoint Dewpoint Depression Visibility Wind Speed Wind Dir Waves Ship Positions

Tropical I

Last reported at 2015-Aug-30 10:14 UTC. Time now 2015-Sep-04 23:11 UTC.
Position N 38°42' W 009°12'.

Length 11 m.

Type: Pleasure craft. MMSI: 263818940.

Date/timePositionNaut miles runAvg speedWind from/ knotsBaromVisibWave heightAir tempDewpointWater temp
2015-Aug-30 10:14N 38°42' W 009°12'3 4.5
2015-Aug-30 09:33N 38°41' W 009°16'4 3.7
2015-Aug-30 08:33N 38°39' W 009°20'3 3.5
2015-Aug-30 07:34N 38°37' W 009°23'5 5.0
2015-Aug-30 06:33N 38°32' W 009°23'5 5.2
2015-Aug-30 05:33N 38°26' W 009°22'23 5.2
2015-Aug-30 01:12N 38°04' W 009°19'3 5.3
2015-Aug-30 00:33N 38°00' W 009°18'5 5.0
2015-Aug-29 23:33N 37°55' W 009°17'5 4.5
2015-Aug-29 22:33N 37°51' W 009°16'4 4.3
2015-Aug-29 21:33N 37°47' W 009°13'4 3.9
2015-Aug-29 20:33N 37°44' W 009°13'3 3.3
2015-Aug-29 19:32N 37°40' W 009°12'4 3.6
2015-Aug-29 18:33N 37°37' W 009°12'39 3.8
2015-Aug-29 08:10N 37°03' W 008°46'4 5.4
2015-Aug-29 07:30N 37°04' W 008°42'9 0.7
2015-Aug-28 18:34N 37°06' W 008°32'5 5.1
2015-Aug-28 17:33N 37°05' W 008°25'6 5.4
2015-Aug-28 16:31N 37°03' W 008°19'6 5.6
2015-Aug-28 15:30N 37°01' W 008°12'  

Dump ship's entire track history